Fortunia — V2OG3 — position and weather

sailwx.info

Track history (hours):
 
Tides and Currents Weather Stations Pressure Air Temp Water Temp Dewpoint Dewpoint Depression Visibility Wind Speed Wind Dir Waves Ship Positions

Fortunia

Last reported at 2016-Feb-06 05:12 UTC. Time now 2016-Feb-09 07:32 UTC.
Position N 36°05' W 005°03'.

Length 121 m; draft 7.1 m.

Type: Ship (hazmat cat D). MMSI: 304010638.

Date/timePositionNaut miles runAvg speedWind from/ knotsBaromVisibWave heightAir tempDewpointWater temp
2016-Feb-06 05:12N 36°05' W 005°03'711.5
2016-Feb-06 04:33N 36°05' W 005°12'1110.8
2016-Feb-06 03:33N 36°07' W 005°25'1 0.7
2016-Feb-06 02:32N 36°08' W 005°25'0 0.0
2016-Feb-06 01:32N 36°08' W 005°25'0 0.0
2016-Feb-06 00:33N 36°08' W 005°25'0 0.0
2016-Feb-05 23:27N 36°08' W 005°25'0 0.0
2016-Feb-05 22:26N 36°08' W 005°25'0 0.0
2016-Feb-05 21:23N 36°08' W 005°25'0 0.0
2016-Feb-05 20:26N 36°08' W 005°25'0 0.0
2016-Feb-05 19:32N 36°08' W 005°25'0 0.0
2016-Feb-05 18:31N 36°08' W 005°25'0 0.0
2016-Feb-05 17:25N 36°08' W 005°25'0 0.0
2016-Feb-05 16:33N 36°08' W 005°25'0 0.0
2016-Feb-05 15:30N 36°08' W 005°25'0 0.0
2016-Feb-05 13:31N 36°08' W 005°25'0 0.0
2016-Feb-05 11:03N 36°08' W 005°25'0 0.0
2016-Feb-05 09:05N 36°08' W 005°25'0 0.0
2016-Feb-05 08:32N 36°08' W 005°25'2 1.6
2016-Feb-05 07:26N 36°09' W 005°25'0 0.0
2016-Feb-05 06:29N 36°09' W 005°25'0 0.0
2016-Feb-05 05:32N 36°09' W 005°25'0 0.0
2016-Feb-05 04:31N 36°09' W 005°25'0 0.1
2016-Feb-05 03:31N 36°09' W 005°25'0 0.1
2016-Feb-05 02:33N 36°09' W 005°25'0 0.0
2016-Feb-05 01:33N 36°09' W 005°25'0 0.0
2016-Feb-05 00:29N 36°09' W 005°25'0 0.0
2016-Feb-04 23:32N 36°09' W 005°25'0 0.0
2016-Feb-04 22:31N 36°09' W 005°25'0 0.0
2016-Feb-04 21:28N 36°09' W 005°25'0 0.0
2016-Feb-04 20:25N 36°09' W 005°25'0 0.3
2016-Feb-04 19:33N 36°09' W 005°25'6 5.8
2016-Feb-04 18:33N 36°05' W 005°20'  
2016-Jan-30 23:29N 36°20' W 002°28'1311.6
2016-Jan-30 22:22N 36°18' W 002°44'12112.4
2016-Jan-30 12:34N 36°06' W 005°14'9 8.3
2016-Jan-30 11:25N 36°08' W 005°25'0 0.0
2016-Jan-30 09:28N 36°08' W 005°25'0 0.0
2016-Jan-30 08:32N 36°08' W 005°25'0 0.0
2016-Jan-30 06:31N 36°08' W 005°25'0 0.0
2016-Jan-30 05:28N 36°08' W 005°25'0 0.0
2016-Jan-30 04:28N 36°08' W 005°25'0 0.0
2016-Jan-30 03:32N 36°08' W 005°25'0 0.0
2016-Jan-30 02:32N 36°08' W 005°25'0 0.0
2016-Jan-30 01:20N 36°08' W 005°25'0 0.0
2016-Jan-30 00:32N 36°08' W 005°25'0 0.0
2016-Jan-29 23:32N 36°08' W 005°25'0 0.0
2016-Jan-29 22:31N 36°08' W 005°25'0 0.0
2016-Jan-29 21:31N 36°08' W 005°25'0 0.0
2016-Jan-29 20:33N 36°08' W 005°25'0 0.0
2016-Jan-29 19:09N 36°08' W 005°25'0 0.0
2016-Jan-29 15:32N 36°08' W 005°25'0 0.0
2016-Jan-29 14:31N 36°08' W 005°25'0 0.0
2016-Jan-29 13:33N 36°08' W 005°25'3 3.4
2016-Jan-29 12:33N 36°05' W 005°23'2 2.5
2016-Jan-29 11:33N 36°04' W 005°20'0 0.0
2016-Jan-29 10:33N 36°04' W 005°20'12211.0
2016-Jan-28 23:31N 36°22' W 002°51'1111.6
2016-Jan-28 22:33N 36°23' W 002°37'1111.4
2016-Jan-28 21:33N 36°24' W 002°23'1111.2
2016-Jan-28 20:31N 36°26' W 002°08'  
Track history (hours):
 
Tides and Currents Weather Stations Pressure Air Temp Water Temp Dewpoint Dewpoint Depression Visibility Wind Speed Wind Dir Waves Ship Positions

Fortunia

Last reported at 2016-Feb-06 05:12 UTC. Time now 2016-Feb-09 07:32 UTC.
Position N 36°05' W 005°03'.

Length 121 m; draft 7.1 m.

Type: Ship (hazmat cat D). MMSI: 304010638.

Date/timePositionNaut miles runAvg speedWind from/ knotsBaromVisibWave heightAir tempDewpointWater temp
2016-Feb-06 05:12N 36°05' W 005°03'711.5
2016-Feb-06 04:33N 36°05' W 005°12'1110.8
2016-Feb-06 03:33N 36°07' W 005°25'1 0.7
2016-Feb-06 02:32N 36°08' W 005°25'0 0.0
2016-Feb-06 01:32N 36°08' W 005°25'0 0.0
2016-Feb-06 00:33N 36°08' W 005°25'0 0.0
2016-Feb-05 23:27N 36°08' W 005°25'0 0.0
2016-Feb-05 22:26N 36°08' W 005°25'0 0.0
2016-Feb-05 21:23N 36°08' W 005°25'0 0.0
2016-Feb-05 20:26N 36°08' W 005°25'0 0.0
2016-Feb-05 19:32N 36°08' W 005°25'0 0.0
2016-Feb-05 18:31N 36°08' W 005°25'0 0.0
2016-Feb-05 17:25N 36°08' W 005°25'0 0.0
2016-Feb-05 16:33N 36°08' W 005°25'0 0.0
2016-Feb-05 15:30N 36°08' W 005°25'0 0.0
2016-Feb-05 13:31N 36°08' W 005°25'0 0.0
2016-Feb-05 11:03N 36°08' W 005°25'0 0.0
2016-Feb-05 09:05N 36°08' W 005°25'0 0.0
2016-Feb-05 08:32N 36°08' W 005°25'2 1.6
2016-Feb-05 07:26N 36°09' W 005°25'0 0.0
2016-Feb-05 06:29N 36°09' W 005°25'0 0.0
2016-Feb-05 05:32N 36°09' W 005°25'0 0.0
2016-Feb-05 04:31N 36°09' W 005°25'0 0.1
2016-Feb-05 03:31N 36°09' W 005°25'0 0.1
2016-Feb-05 02:33N 36°09' W 005°25'0 0.0
2016-Feb-05 01:33N 36°09' W 005°25'0 0.0
2016-Feb-05 00:29N 36°09' W 005°25'0 0.0
2016-Feb-04 23:32N 36°09' W 005°25'0 0.0
2016-Feb-04 22:31N 36°09' W 005°25'0 0.0
2016-Feb-04 21:28N 36°09' W 005°25'0 0.0
2016-Feb-04 20:25N 36°09' W 005°25'0 0.3
2016-Feb-04 19:33N 36°09' W 005°25'6 5.8
2016-Feb-04 18:33N 36°05' W 005°20'  
2016-Jan-30 23:29N 36°20' W 002°28'1311.6
2016-Jan-30 22:22N 36°18' W 002°44'12112.4
2016-Jan-30 12:34N 36°06' W 005°14'9 8.3
2016-Jan-30 11:25N 36°08' W 005°25'0 0.0
2016-Jan-30 09:28N 36°08' W 005°25'0 0.0
2016-Jan-30 08:32N 36°08' W 005°25'0 0.0
2016-Jan-30 06:31N 36°08' W 005°25'0 0.0
2016-Jan-30 05:28N 36°08' W 005°25'0 0.0
2016-Jan-30 04:28N 36°08' W 005°25'0 0.0
2016-Jan-30 03:32N 36°08' W 005°25'0 0.0
2016-Jan-30 02:32N 36°08' W 005°25'0 0.0
2016-Jan-30 01:20N 36°08' W 005°25'0 0.0
2016-Jan-30 00:32N 36°08' W 005°25'0 0.0
2016-Jan-29 23:32N 36°08' W 005°25'0 0.0
2016-Jan-29 22:31N 36°08' W 005°25'0 0.0
2016-Jan-29 21:31N 36°08' W 005°25'0 0.0
2016-Jan-29 20:33N 36°08' W 005°25'0 0.0
2016-Jan-29 19:09N 36°08' W 005°25'0 0.0
2016-Jan-29 15:32N 36°08' W 005°25'0 0.0
2016-Jan-29 14:31N 36°08' W 005°25'0 0.0
2016-Jan-29 13:33N 36°08' W 005°25'3 3.4
2016-Jan-29 12:33N 36°05' W 005°23'2 2.5
2016-Jan-29 11:33N 36°04' W 005°20'0 0.0
2016-Jan-29 10:33N 36°04' W 005°20'12211.0
2016-Jan-28 23:31N 36°22' W 002°51'1111.6
2016-Jan-28 22:33N 36°23' W 002°37'1111.4
2016-Jan-28 21:33N 36°24' W 002°23'1111.2
2016-Jan-28 20:31N 36°26' W 002°08'  

Dump ship's entire track history